Latest Weather Observations for Evans Head

IDN60801

Issued at 12:35 pm EST Sunday 20 April 2014 (issued every 30 minutes, with the page automatically refreshed every 10 minutes)

About weather observations | Map of weather stations | Latest weather observations for NSW | Other Formats
Station Details ID: 058212 Name: EVANS HEAD RAAF BOMBING RANGE AWS Lat: -29.18 Lon: 153.40 Height: 62.5 m
Data from the previous 72 hours. | See also: Recent months at Evans Head
Date/Time
EST
Temp
°C
App
Temp
°C
Dew
Point
Rel
Hum
%
Delta-T
°C
Wind Press
QNH
hPa
Press
MSL
hPa
Rain
since 9 am
mm
Dir
 
Spd
km/h
Gust
km/h
Spd
kts
Gust
kts
20/12:30pm 24.3 24.1 15.8 59 5.2 ESE 11 17 6 9 1016.6 - 0.0
20/12:00pm 24.8 25.4 15.4 56 5.7 NE 6 11 3 6 1017.0 1016.8 0.0
20/11:30am 24.2 23.9 15.4 58 5.3 E 11 17 6 9 1017.5 - 0.0
20/11:00am 24.0 24.2 15.8 60 5.0 ESE 9 13 5 7 1018.1 - 0.0
20/10:30am 23.9 24.7 16.4 63 4.6 S 7 15 4 8 1018.4 - 0.0
20/10:00am 23.4 23.8 14.7 58 5.2 WSW 6 11 3 6 1018.6 - 0.0
20/09:30am 22.5 22.8 14.6 61 4.7 W 6 11 3 6 1018.5 - 0.0
20/09:00am 21.3 21.6 14.5 65 4.0 W 6 9 3 5 1018.6 1018.4 0.0
20/08:30am 20.5 20.8 15.1 71 3.2 W 7 11 4 6 1018.5 - 0.0
20/08:00am 19.3 19.3 14.1 72 3.0 WNW 7 11 4 6 1018.3 - 0.0
20/07:30am 17.2 17.1 13.9 81 1.9 WNW 7 11 4 6 1018.1 - 0.0
20/07:00am 16.9 16.1 13.0 78 2.2 WNW 9 13 5 7 1017.6 - 0.0
20/06:30am 16.6 15.4 12.9 79 2.1 W 11 13 6 7 1017.4 - 0.0
20/06:00am 16.5 16.0 12.8 79 2.1 WSW 7 9 4 5 1017.2 1017.0 0.0
20/05:30am 16.2 14.9 12.4 78 2.1 W 11 13 6 7 1016.9 - 0.0
20/05:00am 16.6 15.0 11.7 73 2.7 W 11 13 6 7 1016.6 - 0.0
20/04:30am 16.7 15.6 12.0 74 2.6 WSW 9 13 5 7 1016.3 - 0.0
20/04:00am 17.2 16.1 11.9 71 2.9 W 9 13 5 7 1016.1 - 0.0
20/03:30am 17.8 16.4 12.3 70 3.1 W 11 13 6 7 1016.0 - 0.0
20/03:00am 18.4 17.4 12.4 68 3.3 W 9 13 5 7 1016.2 1016.0 0.0
20/02:30am 18.6 17.3 12.4 67 3.5 W 11 15 6 8 1016.3 - 0.0
20/02:00am 18.9 17.9 12.4 66 3.6 W 9 13 5 7 1016.2 - 0.0
20/01:30am 19.6 18.3 12.4 63 4.0 WSW 11 11 6 6 1016.3 - 0.0
20/01:00am 19.4 18.0 12.2 63 4.0 W 11 13 6 7 1016.4 - 0.0
20/12:30am 19.6 18.3 12.4 63 4.0 WSW 11 13 6 7 1016.4 - 0.0
20/12:00am 19.7 18.3 12.2 62 4.2 WSW 11 13 6 7 1016.6 1016.4 0.0
 
Date/Time
EST
Temp
°C
App
Temp
°C
Dew
Point
Rel
Hum
%
Delta-T
°C
Wind Press
QNH
hPa
Press
MSL
hPa
Rain
since 9 am
mm
Dir
 
Spd
km/h
Gust
km/h
Spd
kts
Gust
kts
19/11:30pm 19.3 17.9 12.1 63 4.0 W 11 13 6 7 1016.7 - 0.0
19/11:00pm 19.4 18.6 11.7 61 4.3 W 7 9 4 5 1016.7 - 0.0
19/10:30pm 20.2 19.3 11.4 57 4.9 SSE 7 9 4 5 1016.7 - 0.0
19/10:00pm 20.8 19.5 12.5 59 4.7 ESE 11 13 6 7 1016.5 - 0.0
19/09:30pm 20.7 19.0 12.4 59 4.7 ESE 13 17 7 9 1016.5 - 0.0
19/09:00pm 20.6 18.8 12.1 58 4.8 ESE 13 17 7 9 1016.4 1016.2 0.0
19/08:30pm 20.1 18.0 11.3 57 4.9 SE 13 15 7 8 1016.4 - 0.0
19/08:00pm 20.4 18.6 10.8 54 5.3 ESE 11 15 6 8 1016.2 - 0.0
19/07:30pm 20.1 18.3 10.8 55 5.1 ESE 11 15 6 8 1015.8 - 0.0
19/07:00pm 20.5 19.2 11.2 55 5.1 E 9 13 5 7 1015.4 - 0.0
19/06:30pm 20.5 18.2 10.3 52 5.5 ESE 13 17 7 9 1014.9 - 0.0
19/06:00pm 20.3 18.7 10.1 52 5.5 ESE 9 13 5 7 1014.6 1014.4 0.0
19/05:30pm 20.4 18.5 10.5 53 5.4 ESE 11 13 6 7 1014.5 - 0.0
19/05:00pm 20.7 18.8 10.5 52 5.6 ESE 11 15 6 8 1014.1 - 0.0
19/04:30pm 21.6 19.7 10.4 49 6.1 SE 11 15 6 8 1013.8 - 0.0
19/04:00pm 22.6 20.8 10.7 47 6.6 ESE 11 17 6 9 1013.6 - 0.0
19/03:30pm 23.1 20.2 9.8 43 7.3 SE 15 20 8 11 1013.6 - 0.0
19/03:00pm 23.4 20.3 9.0 40 7.8 SE 15 20 8 11 1013.7 1013.5 0.0
19/02:30pm 23.7 20.1 8.2 37 8.2 SE 17 20 9 11 1013.7 - 0.0
19/02:00pm 24.4 20.9 10.3 41 7.8 SE 19 24 10 13 1013.7 - 0.0
19/01:30pm 24.9 21.5 9.2 37 8.6 SSE 17 24 9 13 1013.8 - 0.0
19/01:00pm 25.1 21.2 9.4 37 8.6 S 20 30 11 16 1014.1 - 0.0
19/12:30pm 25.0 20.7 7.2 32 9.4 S 19 24 10 13 1014.6 - 0.0
19/12:00pm 24.7 21.6 9.0 37 8.5 S 15 22 8 12 1015.0 1014.8 0.0
19/11:30am 24.6 21.5 9.0 37 8.5 SSW 15 24 8 13 1015.5 - 0.0
19/11:00am 24.6 22.1 11.2 43 7.5 SW 15 20 8 11 1015.8 - 0.0
19/10:30am 23.6 20.9 10.3 43 7.3 SW 15 22 8 12 1016.1 - 0.0
19/10:00am 22.9 20.8 12.5 52 5.9 SW 15 22 8 12 1016.3 - 0.0
19/09:30am 21.6 20.0 12.7 57 5.1 WSW 13 22 7 12 1016.4 - 0.0
19/09:00am 20.6 17.9 11.8 57 4.9 WSW 17 26 9 14 1016.5 1016.3 0.0
19/08:30am 19.9 17.1 11.4 58 4.7 WSW 17 24 9 13 1016.6 - 0.0
19/08:00am 19.0 18.1 13.6 71 3.1 W 11 17 6 9 1016.5 - 0.0
19/07:30am 17.8 16.6 14.1 79 2.1 W 13 20 7 11 1016.4 - 0.0
19/07:00am 16.4 15.5 14.9 91 0.9 W 13 17 7 9 1016.2 - 0.0
19/06:30am 14.8 14.1 14.3 97 0.3 WNW 11 17 6 9 1016.1 - 0.0
19/06:00am 14.4 13.2 13.9 97 0.3 WNW 13 17 7 9 1015.9 1015.7 0.0
19/05:30am 14.4 13.2 13.9 97 0.3 WNW 13 17 7 9 1015.8 - 0.0
19/05:00am 14.2 13.3 13.7 97 0.3 W 11 17 6 9 1015.6 - 0.0
19/04:30am 14.1 13.2 13.6 97 0.3 W 11 15 6 8 1015.4 - 0.0
19/04:00am 14.5 13.3 14.0 97 0.3 W 13 17 7 9 1015.2 - 0.0
19/03:30am 15.2 15.5 14.9 98 0.2 WNW 7 9 4 5 1015.0 - 0.0
19/03:00am 15.5 15.5 15.2 98 0.2 WNW 9 11 5 6 1015.0 1014.8 0.0
19/02:30am 15.6 15.9 15.1 97 0.3 WNW 7 9 4 5 1015.1 - 0.0
19/02:00am 16.0 15.7 15.5 97 0.3 W 11 13 6 7 1015.3 - 0.0
19/01:30am 16.2 16.0 15.7 97 0.3 WSW 11 13 6 7 1015.4 - 0.0
19/01:00am 16.7 16.6 16.1 96 0.4 W 11 15 6 8 1015.5 - 0.0
19/12:30am 16.9 17.9 16.4 97 0.3 WNW 6 7 3 4 1015.6 - 0.0
19/12:00am 16.8 17.1 16.0 95 0.5 N 9 11 5 6 1015.6 1015.4 0.0
 
Date/Time
EST
Temp
°C
App
Temp
°C
Dew
Point
Rel
Hum
%
Delta-T
°C
Wind Press
QNH
hPa
Press
MSL
hPa
Rain
since 9 am
mm
Dir
 
Spd
km/h
Gust
km/h
Spd
kts
Gust
kts
18/11:30pm 17.4 17.2 16.8 96 0.4 N 13 15 7 8 1015.7 - 0.0
18/11:00pm 16.7 16.3 16.2 97 0.3 N 13 17 7 9 1015.8 - 0.0
18/10:30pm 16.8 16.5 15.5 92 0.8 N 11 13 6 7 1015.8 - 0.0
18/10:00pm 17.4 17.2 15.7 90 1.0 N 11 15 6 8 1015.8 - 0.0
18/09:30pm 17.8 17.6 15.8 88 1.2 N 11 15 6 8 1015.8 - 0.0
18/09:00pm 17.8 17.6 15.8 88 1.2 N 11 15 6 8 1015.8 1015.6 0.0
18/08:30pm 17.7 17.0 15.5 87 1.3 N 13 17 7 9 1015.6 - 0.0
18/08:00pm 17.8 17.1 14.3 80 2.0 N 11 15 6 8 1015.5 - 0.0
18/07:30pm 18.6 18.2 14.1 75 2.6 N 9 13 5 7 1015.1 - 0.0
18/07:00pm 19.0 18.7 14.3 74 2.7 NNE 9 11 5 6 1014.8 - 0.0
18/06:30pm 19.7 19.4 14.3 71 3.1 NE 9 11 5 6 1014.4 - 0.0
18/06:00pm 20.0 19.7 14.4 70 3.3 E 9 13 5 7 1014.1 1013.8 0.0
18/05:30pm 20.1 19.7 14.0 68 3.5 E 9 13 5 7 1013.9 - 0.0
18/05:00pm 20.4 19.8 14.5 69 3.4 E 11 17 6 9 1013.7 - 0.0
18/04:30pm 21.3 20.4 14.9 67 3.8 ESE 13 19 7 10 1013.5 - 0.0
18/04:00pm 22.0 21.0 14.6 63 4.4 ESE 13 17 7 9 1013.3 - 0.0
18/03:30pm 22.5 21.7 15.1 63 4.4 E 13 17 7 9 1013.4 - 0.0
18/03:00pm 23.0 22.1 14.8 60 4.9 E 13 17 7 9 1013.5 1013.3 0.0
18/02:30pm 23.1 22.4 15.4 62 4.6 SE 13 19 7 10 1013.6 - 0.0
18/02:00pm 23.3 22.0 14.8 59 5.1 SE 15 17 8 9 1013.6 - 0.0
18/01:30pm 22.9 22.1 15.0 61 4.7 SSE 13 19 7 10 1013.8 - 0.0
18/01:00pm 24.4 23.3 15.3 57 5.5 SSE 15 22 8 12 1014.1 - 0.0
18/12:30pm 23.2 22.8 15.3 61 4.7 S 11 17 6 9 1014.4 - 0.0
18/12:00pm 24.2 23.4 12.8 49 6.6 W 9 19 5 10 1015.1 1014.9 0.0
18/11:30am 24.5 25.2 16.0 59 5.2 SSW 7 17 4 9 1015.7 - 0.0
18/11:00am 23.0 22.5 15.8 64 4.3 S 13 19 7 10 1016.2 - 0.0
18/10:30am 22.8 22.2 14.6 60 4.9 SW 11 17 6 9 1016.6 - 0.0
18/10:00am 22.1 21.5 14.5 62 4.5 W 11 20 6 11 1017.0 - 0.0
18/09:30am 20.8 20.5 14.5 67 3.7 WSW 9 15 5 8 1017.2 - 0.0
18/09:00am 19.6 18.9 14.2 71 3.1 SW 11 17 6 9 1017.5 1017.3 0.0
18/08:30am 20.2 19.6 14.6 70 3.3 WSW 11 17 6 9 1017.5 - 0.0
18/08:00am 19.4 18.3 14.4 73 2.9 SW 13 19 7 10 1017.4 - 0.0
18/07:30am 17.1 16.1 13.4 79 2.1 W 11 13 6 7 1017.5 - 0.0
18/07:00am 16.7 15.0 12.5 76 2.3 W 13 17 7 9 1017.3 - 0.0
18/06:30am 16.4 14.6 12.0 75 2.4 W 13 17 7 9 1016.9 - 0.0
18/06:00am 15.9 14.1 12.1 78 2.1 W 13 17 7 9 1016.6 1016.4 0.0
18/05:30am 16.1 14.4 12.3 78 2.1 WSW 13 17 7 9 1016.4 - 0.0
18/05:00am 16.1 14.4 12.3 78 2.1 WSW 13 17 7 9 1016.4 - 0.0
18/04:30am 16.4 14.2 12.2 76 2.3 WSW 15 17 8 9 1016.4 - 0.0
18/04:00am 16.4 14.6 12.2 76 2.3 WSW 13 17 7 9 1016.4 - 0.0
18/03:30am 16.4 14.7 12.4 77 2.2 WSW 13 19 7 10 1016.5 - 0.0
18/03:00am 16.5 14.6 13.0 80 2.0 W 15 19 8 10 1016.6 1016.4 0.0
18/02:30am 16.9 14.7 13.2 79 2.1 WSW 17 20 9 11 1016.5 - 0.0
18/02:00am 17.0 15.3 13.7 81 1.9 WSW 15 22 8 12 1016.7 - 0.0
18/01:30am 17.3 15.7 13.8 80 2.0 SW 15 20 8 11 1016.8 - 0.0
18/01:00am 17.6 15.7 14.3 81 1.9 SW 17 24 9 13 1017.2 - 0.0
18/12:30am 17.8 15.9 15.1 84 1.6 SW 19 22 10 12 1017.3 - 0.0
18/12:00am 18.0 16.6 15.6 86 1.4 SW 17 22 9 12 1017.5 1017.3 0.0
 
Date/Time
EST
Temp
°C
App
Temp
°C
Dew
Point
Rel
Hum
%
Delta-T
°C
Wind Press
QNH
hPa
Press
MSL
hPa
Rain
since 9 am
mm
Dir
 
Spd
km/h
Gust
km/h
Spd
kts
Gust
kts
17/11:30pm 18.3 16.7 16.1 87 1.3 SW 19 24 10 13 1017.7 - 0.0
17/11:00pm 18.4 17.9 16.0 86 1.4 WSW 13 17 7 9 1017.8 - 0.0
17/10:30pm 18.9 18.5 16.1 84 1.7 SW 13 19 7 10 1017.9 - 0.0
17/10:00pm 19.3 19.4 17.4 89 1.2 S 13 22 7 12 1018.0 - 0.0
17/09:30pm 20.5 19.3 16.1 76 2.6 S 17 22 9 12 1017.9 - 0.0
17/09:00pm 20.6 19.1 16.4 77 2.5 SSE 19 26 10 14 1017.8 1017.6 0.0
17/08:30pm 20.9 18.8 16.1 74 2.9 SSE 22 30 12 16 1017.5 - 0.0
17/08:00pm 20.8 18.9 16.6 77 2.5 SSE 22 33 12 18 1017.3 - 0.0
17/07:30pm 20.4 18.7 15.8 75 2.7 SSE 19 30 10 16 1017.0 - 0.0
17/07:00pm 20.1 18.5 15.1 73 2.9 SSE 17 24 9 13 1016.7 - 0.0
17/06:30pm 20.3 18.4 15.1 72 3.1 SSE 19 24 10 13 1016.4 - 0.0
17/06:00pm 20.4 18.9 15.2 72 3.1 SSE 17 26 9 14 1016.1 1015.9 0.0
17/05:30pm 20.1 18.0 14.7 71 3.2 SSE 19 26 10 14 1016.0 - 0.0
17/05:00pm 20.2 18.9 14.8 71 3.2 SSE 15 22 8 12 1015.9 - 0.0
17/04:30pm 20.8 19.0 14.5 67 3.7 SSE 17 24 9 13 1015.7 - 0.0
17/04:00pm 21.5 19.2 14.2 63 4.3 SSE 19 28 10 15 1015.5 - 0.0
17/03:30pm 22.0 19.8 14.4 62 4.5 SSE 19 24 10 13 1015.4 - 0.0
17/03:00pm 22.4 20.1 14.0 59 4.9 SSE 19 24 10 13 1015.5 1015.3 0.0
17/02:30pm 22.6 20.1 14.2 59 4.9 SE 20 26 11 14 1015.5 - 0.0
17/02:00pm 23.1 20.9 14.4 58 5.1 SSE 19 26 10 14 1016.0 - 0.0
17/01:30pm 23.1 21.0 15.2 61 4.7 SSE 20 26 11 14 1016.1 - 0.0
17/01:00pm 23.3 21.1 14.3 57 5.3 SSE 19 24 10 13 1016.3 - 0.0

Other Formats:

Comma delimited format used in spreadsheet applications
http://www.bom.gov.au/fwo/IDN60801/IDN60801.94598.axf

JavaScript Object Notation format (JSON) in row-major order
http://www.bom.gov.au/fwo/IDN60801/IDN60801.94598.json